sensor_id;sensor_type;location;lat;lon;timestamp;P1;durP1;ratioP1;P2;durP2;ratioP2
69511;SDS011;56709;52.036;4.644;2022-07-19T00:01:33;7.65;;;4.28;;
69511;SDS011;56709;52.036;4.644;2022-07-19T00:03:58;6.93;;;3.28;;
69511;SDS011;56709;52.036;4.644;2022-07-19T00:06:24;5.50;;;3.35;;
69511;SDS011;56709;52.036;4.644;2022-07-19T00:08:49;6.73;;;2.87;;
69511;SDS011;56709;52.036;4.644;2022-07-19T00:11:15;7.45;;;3.53;;
69511;SDS011;56709;52.036;4.644;2022-07-19T00:13:40;7.35;;;3.80;;
69511;SDS011;56709;52.036;4.644;2022-07-19T00:16:06;8.02;;;4.07;;
69511;SDS011;56709;52.036;4.644;2022-07-19T00:18:31;5.50;;;3.72;;
69511;SDS011;56709;52.036;4.644;2022-07-19T00:20:56;7.03;;;3.35;;
69511;SDS011;56709;52.036;4.644;2022-07-19T00:23:23;6.43;;;3.87;;
69511;SDS011;56709;52.036;4.644;2022-07-19T00:25:48;6.60;;;3.28;;
69511;SDS011;56709;52.036;4.644;2022-07-19T00:28:13;5.30;;;3.20;;
69511;SDS011;56709;52.036;4.644;2022-07-19T00:30:39;5.35;;;3.60;;
69511;SDS011;56709;52.036;4.644;2022-07-19T00:33:04;6.25;;;3.47;;
69511;SDS011;56709;52.036;4.644;2022-07-19T00:35:33;6.18;;;3.30;;
69511;SDS011;56709;52.036;4.644;2022-07-19T00:38:03;7.35;;;4.18;;
69511;SDS011;56709;52.036;4.644;2022-07-19T00:40:35;7.47;;;3.58;;
69511;SDS011;56709;52.036;4.644;2022-07-19T00:43:02;5.93;;;3.40;;
69511;SDS011;56709;52.036;4.644;2022-07-19T00:45:28;4.93;;;3.50;;
69511;SDS011;56709;52.036;4.644;2022-07-19T00:47:53;8.02;;;4.15;;
69511;SDS011;56709;52.036;4.644;2022-07-19T00:50:19;6.75;;;3.50;;
69511;SDS011;56709;52.036;4.644;2022-07-19T00:52:46;5.83;;;3.50;;
69511;SDS011;56709;52.036;4.644;2022-07-19T00:55:15;7.47;;;3.75;;
69511;SDS011;56709;52.036;4.644;2022-07-19T00:57:42;9.18;;;3.70;;
69511;SDS011;56709;52.036;4.644;2022-07-19T01:00:08;5.03;;;3.17;;
69511;SDS011;56709;52.036;4.644;2022-07-19T01:02:35;6.55;;;4.18;;
69511;SDS011;56709;52.036;4.644;2022-07-19T01:05:01;7.45;;;4.20;;
69511;SDS011;56709;52.036;4.644;2022-07-19T01:07:27;8.50;;;4.57;;
69511;SDS011;56709;52.036;4.644;2022-07-19T01:09:52;6.40;;;3.65;;
69511;SDS011;56709;52.036;4.644;2022-07-19T01:12:21;7.47;;;3.85;;
69511;SDS011;56709;52.036;4.644;2022-07-19T01:14:50;8.55;;;3.97;;
69511;SDS011;56709;52.036;4.644;2022-07-19T01:17:23;6.70;;;3.83;;
69511;SDS011;56709;52.036;4.644;2022-07-19T01:19:48;8.27;;;4.78;;
69511;SDS011;56709;52.036;4.644;2022-07-19T01:22:14;7.63;;;4.00;;
69511;SDS011;56709;52.036;4.644;2022-07-19T01:24:39;7.22;;;4.15;;
69511;SDS011;56709;52.036;4.644;2022-07-19T01:27:05;8.65;;;4.55;;
69511;SDS011;56709;52.036;4.644;2022-07-19T01:29:31;10.05;;;3.97;;
69511;SDS011;56709;52.036;4.644;2022-07-19T01:31:57;10.20;;;4.33;;
69511;SDS011;56709;52.036;4.644;2022-07-19T01:34:22;12.70;;;4.97;;
69511;SDS011;56709;52.036;4.644;2022-07-19T01:36:47;6.68;;;4.03;;
69511;SDS011;56709;52.036;4.644;2022-07-19T01:39:13;6.60;;;3.92;;
69511;SDS011;56709;52.036;4.644;2022-07-19T01:41:38;7.88;;;4.18;;
69511;SDS011;56709;52.036;4.644;2022-07-19T01:44:04;7.60;;;4.05;;
69511;SDS011;56709;52.036;4.644;2022-07-19T01:46:29;6.97;;;4.00;;
69511;SDS011;56709;52.036;4.644;2022-07-19T01:48:55;6.97;;;4.00;;
69511;SDS011;56709;52.036;4.644;2022-07-19T01:51:20;11.05;;;4.63;;
69511;SDS011;56709;52.036;4.644;2022-07-19T01:53:46;7.38;;;4.32;;
69511;SDS011;56709;52.036;4.644;2022-07-19T01:56:11;9.32;;;4.10;;
69511;SDS011;56709;52.036;4.644;2022-07-19T01:58:36;6.88;;;4.03;;
69511;SDS011;56709;52.036;4.644;2022-07-19T02:01:02;7.65;;;4.57;;
69511;SDS011;56709;52.036;4.644;2022-07-19T02:03:27;7.90;;;4.10;;
69511;SDS011;56709;52.036;4.644;2022-07-19T02:05:53;8.35;;;4.53;;
69511;SDS011;56709;52.036;4.644;2022-07-19T02:08:18;7.63;;;4.20;;
69511;SDS011;56709;52.036;4.644;2022-07-19T02:10:44;14.10;;;5.25;;
69511;SDS011;56709;52.036;4.644;2022-07-19T02:13:09;8.90;;;4.30;;
69511;SDS011;56709;52.036;4.644;2022-07-19T02:15:35;7.30;;;4.40;;
69511;SDS011;56709;52.036;4.644;2022-07-19T02:18:00;10.85;;;4.78;;
69511;SDS011;56709;52.036;4.644;2022-07-19T02:20:26;9.60;;;4.90;;
69511;SDS011;56709;52.036;4.644;2022-07-19T02:22:51;7.80;;;4.82;;
69511;SDS011;56709;52.036;4.644;2022-07-19T02:25:17;8.07;;;5.63;;
69511;SDS011;56709;52.036;4.644;2022-07-19T02:27:43;9.68;;;4.72;;
69511;SDS011;56709;52.036;4.644;2022-07-19T02:30:09;6.45;;;4.20;;
69511;SDS011;56709;52.036;4.644;2022-07-19T02:32:36;7.70;;;4.60;;
69511;SDS011;56709;52.036;4.644;2022-07-19T02:35:02;9.80;;;5.18;;
69511;SDS011;56709;52.036;4.644;2022-07-19T02:37:27;12.82;;;5.18;;
69511;SDS011;56709;52.036;4.644;2022-07-19T02:39:53;9.43;;;5.05;;
69511;SDS011;56709;52.036;4.644;2022-07-19T02:42:18;12.85;;;5.53;;
69511;SDS011;56709;52.036;4.644;2022-07-19T02:44:44;6.70;;;4.43;;
69511;SDS011;56709;52.036;4.644;2022-07-19T02:47:09;9.20;;;5.28;;
69511;SDS011;56709;52.036;4.644;2022-07-19T02:49:34;9.93;;;5.85;;
69511;SDS011;56709;52.036;4.644;2022-07-19T02:52:00;8.10;;;5.38;;
69511;SDS011;56709;52.036;4.644;2022-07-19T02:54:25;8.27;;;5.10;;
69511;SDS011;56709;52.036;4.644;2022-07-19T02:56:50;9.52;;;5.13;;
69511;SDS011;56709;52.036;4.644;2022-07-19T02:59:16;11.40;;;5.97;;
69511;SDS011;56709;52.036;4.644;2022-07-19T03:01:41;7.22;;;5.25;;
69511;SDS011;56709;52.036;4.644;2022-07-19T03:04:07;10.32;;;5.90;;
69511;SDS011;56709;52.036;4.644;2022-07-19T03:06:32;9.15;;;5.70;;
69511;SDS011;56709;52.036;4.644;2022-07-19T03:08:57;9.52;;;5.25;;
69511;SDS011;56709;52.036;4.644;2022-07-19T03:11:23;11.70;;;6.35;;
69511;SDS011;56709;52.036;4.644;2022-07-19T03:13:48;13.30;;;6.78;;
69511;SDS011;56709;52.036;4.644;2022-07-19T03:16:14;9.80;;;6.70;;
69511;SDS011;56709;52.036;4.644;2022-07-19T03:18:39;10.02;;;6.50;;
69511;SDS011;56709;52.036;4.644;2022-07-19T03:21:04;11.15;;;7.20;;
69511;SDS011;56709;52.036;4.644;2022-07-19T03:23:31;12.13;;;7.10;;
69511;SDS011;56709;52.036;4.644;2022-07-19T03:28:23;8.33;;;6.10;;
69511;SDS011;56709;52.036;4.644;2022-07-19T03:30:48;12.13;;;6.85;;
69511;SDS011;56709;52.036;4.644;2022-07-19T03:33:14;10.90;;;6.75;;
69511;SDS011;56709;52.036;4.644;2022-07-19T03:35:42;11.85;;;6.70;;
69511;SDS011;56709;52.036;4.644;2022-07-19T03:38:09;15.02;;;7.80;;
69511;SDS011;56709;52.036;4.644;2022-07-19T03:40:38;13.55;;;7.95;;
69511;SDS011;56709;52.036;4.644;2022-07-19T03:43:04;11.93;;;7.82;;
69511;SDS011;56709;52.036;4.644;2022-07-19T03:45:30;13.20;;;8.10;;
69511;SDS011;56709;52.036;4.644;2022-07-19T03:47:55;11.05;;;7.00;;
69511;SDS011;56709;52.036;4.644;2022-07-19T03:50:20;10.35;;;6.55;;
69511;SDS011;56709;52.036;4.644;2022-07-19T03:52:46;14.20;;;8.27;;
69511;SDS011;56709;52.036;4.644;2022-07-19T03:55:11;16.08;;;8.95;;
69511;SDS011;56709;52.036;4.644;2022-07-19T03:57:37;17.15;;;10.23;;
69511;SDS011;56709;52.036;4.644;2022-07-19T04:00:03;14.05;;;9.00;;
69511;SDS011;56709;52.036;4.644;2022-07-19T04:02:29;16.23;;;10.20;;
69511;SDS011;56709;52.036;4.644;2022-07-19T04:04:54;15.70;;;9.30;;
69511;SDS011;56709;52.036;4.644;2022-07-19T04:07:20;15.82;;;9.30;;
69511;SDS011;56709;52.036;4.644;2022-07-19T04:09:45;15.63;;;8.90;;
69511;SDS011;56709;52.036;4.644;2022-07-19T04:12:11;12.88;;;7.57;;
69511;SDS011;56709;52.036;4.644;2022-07-19T04:14:36;15.65;;;9.13;;
69511;SDS011;56709;52.036;4.644;2022-07-19T04:17:02;17.67;;;10.27;;
69511;SDS011;56709;52.036;4.644;2022-07-19T04:19:29;15.27;;;9.20;;
69511;SDS011;56709;52.036;4.644;2022-07-19T04:21:55;14.75;;;8.45;;
69511;SDS011;56709;52.036;4.644;2022-07-19T04:24:20;16.42;;;9.07;;
69511;SDS011;56709;52.036;4.644;2022-07-19T04:26:46;15.27;;;8.73;;
69511;SDS011;56709;52.036;4.644;2022-07-19T04:29:11;19.42;;;9.75;;
69511;SDS011;56709;52.036;4.644;2022-07-19T04:31:36;14.32;;;8.75;;
69511;SDS011;56709;52.036;4.644;2022-07-19T04:34:02;18.40;;;9.35;;
69511;SDS011;56709;52.036;4.644;2022-07-19T04:36:27;14.20;;;7.93;;
69511;SDS011;56709;52.036;4.644;2022-07-19T04:38:52;16.27;;;9.23;;
69511;SDS011;56709;52.036;4.644;2022-07-19T04:41:18;11.00;;;8.32;;
69511;SDS011;56709;52.036;4.644;2022-07-19T04:43:43;12.50;;;9.02;;
69511;SDS011;56709;52.036;4.644;2022-07-19T04:46:09;11.55;;;8.45;;
69511;SDS011;56709;52.036;4.644;2022-07-19T04:48:34;16.25;;;9.13;;
69511;SDS011;56709;52.036;4.644;2022-07-19T04:50:59;12.00;;;8.13;;
69511;SDS011;56709;52.036;4.644;2022-07-19T04:53:25;13.18;;;7.90;;
69511;SDS011;56709;52.036;4.644;2022-07-19T04:55:50;13.30;;;8.30;;
69511;SDS011;56709;52.036;4.644;2022-07-19T04:58:16;13.98;;;8.68;;
69511;SDS011;56709;52.036;4.644;2022-07-19T05:00:41;14.43;;;8.70;;
69511;SDS011;56709;52.036;4.644;2022-07-19T05:03:07;11.68;;;7.40;;
69511;SDS011;56709;52.036;4.644;2022-07-19T05:05:32;17.75;;;10.43;;
69511;SDS011;56709;52.036;4.644;2022-07-19T05:07:58;16.60;;;10.10;;
69511;SDS011;56709;52.036;4.644;2022-07-19T05:10:23;15.88;;;9.68;;
69511;SDS011;56709;52.036;4.644;2022-07-19T05:12:49;18.65;;;10.15;;
69511;SDS011;56709;52.036;4.644;2022-07-19T05:15:14;17.42;;;10.48;;
69511;SDS011;56709;52.036;4.644;2022-07-19T05:17:40;21.08;;;9.98;;
69511;SDS011;56709;52.036;4.644;2022-07-19T05:20:05;15.97;;;9.33;;
69511;SDS011;56709;52.036;4.644;2022-07-19T05:22:32;18.40;;;9.00;;
69511;SDS011;56709;52.036;4.644;2022-07-19T05:24:57;15.30;;;9.20;;
69511;SDS011;56709;52.036;4.644;2022-07-19T05:27:24;13.23;;;9.10;;
69511;SDS011;56709;52.036;4.644;2022-07-19T05:29:49;15.93;;;9.17;;
69511;SDS011;56709;52.036;4.644;2022-07-19T05:32:15;18.90;;;9.43;;
69511;SDS011;56709;52.036;4.644;2022-07-19T05:34:40;18.07;;;9.00;;
69511;SDS011;56709;52.036;4.644;2022-07-19T05:37:06;17.43;;;9.07;;
69511;SDS011;56709;52.036;4.644;2022-07-19T05:39:31;14.53;;;8.67;;
69511;SDS011;56709;52.036;4.644;2022-07-19T05:41:57;18.10;;;8.93;;
69511;SDS011;56709;52.036;4.644;2022-07-19T05:44:22;13.83;;;7.90;;
69511;SDS011;56709;52.036;4.644;2022-07-19T05:46:48;16.37;;;8.93;;
69511;SDS011;56709;52.036;4.644;2022-07-19T05:49:13;17.23;;;8.13;;
69511;SDS011;56709;52.036;4.644;2022-07-19T05:51:39;19.60;;;8.63;;
69511;SDS011;56709;52.036;4.644;2022-07-19T05:54:05;16.43;;;9.13;;
69511;SDS011;56709;52.036;4.644;2022-07-19T05:56:30;15.63;;;7.97;;
69511;SDS011;56709;52.036;4.644;2022-07-19T05:58:56;13.70;;;8.07;;
69511;SDS011;56709;52.036;4.644;2022-07-19T06:01:22;14.23;;;8.37;;
69511;SDS011;56709;52.036;4.644;2022-07-19T06:03:49;13.97;;;9.13;;
69511;SDS011;56709;52.036;4.644;2022-07-19T06:06:19;14.77;;;9.02;;
69511;SDS011;56709;52.036;4.644;2022-07-19T06:08:45;18.75;;;9.65;;
69511;SDS011;56709;52.036;4.644;2022-07-19T06:11:11;19.23;;;8.13;;
69511;SDS011;56709;52.036;4.644;2022-07-19T06:13:37;17.20;;;8.80;;
69511;SDS011;56709;52.036;4.644;2022-07-19T06:16:02;18.07;;;8.70;;
69511;SDS011;56709;52.036;4.644;2022-07-19T06:18:28;16.88;;;8.20;;
69511;SDS011;56709;52.036;4.644;2022-07-19T06:21:09;14.88;;;7.32;;
69511;SDS011;56709;52.036;4.644;2022-07-19T06:23:36;10.43;;;6.85;;
69511;SDS011;56709;52.036;4.644;2022-07-19T06:26:02;12.52;;;8.00;;
69511;SDS011;56709;52.036;4.644;2022-07-19T06:28:29;13.25;;;7.60;;
69511;SDS011;56709;52.036;4.644;2022-07-19T06:30:55;19.03;;;8.20;;
69511;SDS011;56709;52.036;4.644;2022-07-19T06:33:20;16.00;;;7.30;;
69511;SDS011;56709;52.036;4.644;2022-07-19T06:35:46;22.03;;;7.93;;
69511;SDS011;56709;52.036;4.644;2022-07-19T06:38:12;17.37;;;7.33;;
69511;SDS011;56709;52.036;4.644;2022-07-19T06:40:37;18.17;;;7.77;;
69511;SDS011;56709;52.036;4.644;2022-07-19T06:43:03;14.10;;;8.53;;
69511;SDS011;56709;52.036;4.644;2022-07-19T06:45:28;22.93;;;8.60;;
69511;SDS011;56709;52.036;4.644;2022-07-19T06:47:54;18.77;;;8.17;;
69511;SDS011;56709;52.036;4.644;2022-07-19T06:50:19;16.53;;;6.97;;
69511;SDS011;56709;52.036;4.644;2022-07-19T06:52:45;17.30;;;7.87;;
69511;SDS011;56709;52.036;4.644;2022-07-19T06:55:10;18.50;;;7.90;;
69511;SDS011;56709;52.036;4.644;2022-07-19T06:57:36;22.00;;;8.40;;
69511;SDS011;56709;52.036;4.644;2022-07-19T07:00:02;18.70;;;7.57;;
69511;SDS011;56709;52.036;4.644;2022-07-19T07:02:29;18.17;;;8.73;;
69511;SDS011;56709;52.036;4.644;2022-07-19T07:04:54;19.30;;;8.23;;
69511;SDS011;56709;52.036;4.644;2022-07-19T07:07:19;17.13;;;7.50;;
69511;SDS011;56709;52.036;4.644;2022-07-19T07:09:45;19.10;;;7.53;;
69511;SDS011;56709;52.036;4.644;2022-07-19T07:12:10;13.07;;;7.30;;
69511;SDS011;56709;52.036;4.644;2022-07-19T07:14:36;14.10;;;6.40;;
69511;SDS011;56709;52.036;4.644;2022-07-19T07:17:01;12.90;;;6.80;;
69511;SDS011;56709;52.036;4.644;2022-07-19T07:19:26;14.70;;;7.23;;
69511;SDS011;56709;52.036;4.644;2022-07-19T07:21:52;12.10;;;6.93;;
69511;SDS011;56709;52.036;4.644;2022-07-19T07:24:17;11.50;;;6.60;;
69511;SDS011;56709;52.036;4.644;2022-07-19T07:26:43;13.27;;;6.40;;
69511;SDS011;56709;52.036;4.644;2022-07-19T07:29:08;14.20;;;7.63;;
69511;SDS011;56709;52.036;4.644;2022-07-19T07:31:34;11.83;;;5.73;;
69511;SDS011;56709;52.036;4.644;2022-07-19T07:33:59;10.20;;;5.40;;
69511;SDS011;56709;52.036;4.644;2022-07-19T07:36:24;11.37;;;5.60;;
69511;SDS011;56709;52.036;4.644;2022-07-19T07:38:50;10.83;;;5.30;;
69511;SDS011;56709;52.036;4.644;2022-07-19T07:41:15;8.90;;;5.00;;
69511;SDS011;56709;52.036;4.644;2022-07-19T07:43:41;13.00;;;5.87;;
69511;SDS011;56709;52.036;4.644;2022-07-19T07:46:06;12.17;;;6.07;;
69511;SDS011;56709;52.036;4.644;2022-07-19T07:48:32;10.67;;;6.13;;
69511;SDS011;56709;52.036;4.644;2022-07-19T07:50:57;18.87;;;7.20;;
69511;SDS011;56709;52.036;4.644;2022-07-19T07:53:22;13.97;;;7.23;;
69511;SDS011;56709;52.036;4.644;2022-07-19T07:55:48;17.03;;;8.03;;
69511;SDS011;56709;52.036;4.644;2022-07-19T07:58:13;11.77;;;7.30;;
69511;SDS011;56709;52.036;4.644;2022-07-19T08:00:39;13.97;;;9.30;;
69511;SDS011;56709;52.036;4.644;2022-07-19T08:03:05;17.38;;;9.68;;
69511;SDS011;56709;52.036;4.644;2022-07-19T08:05:31;18.50;;;10.07;;
69511;SDS011;56709;52.036;4.644;2022-07-19T08:07:57;17.38;;;10.13;;
69511;SDS011;56709;52.036;4.644;2022-07-19T08:10:23;17.00;;;9.32;;
69511;SDS011;56709;52.036;4.644;2022-07-19T08:12:49;17.92;;;9.63;;
69511;SDS011;56709;52.036;4.644;2022-07-19T08:15:15;16.73;;;9.13;;
69511;SDS011;56709;52.036;4.644;2022-07-19T08:17:40;16.27;;;9.13;;
69511;SDS011;56709;52.036;4.644;2022-07-19T08:20:06;20.77;;;11.07;;
69511;SDS011;56709;52.036;4.644;2022-07-19T08:27:23;16.17;;;10.00;;
69511;SDS011;56709;52.036;4.644;2022-07-19T08:29:48;18.07;;;8.77;;
69511;SDS011;56709;52.036;4.644;2022-07-19T08:32:14;19.37;;;10.80;;
69511;SDS011;56709;52.036;4.644;2022-07-19T08:34:39;19.50;;;10.67;;
69511;SDS011;56709;52.036;4.644;2022-07-19T08:37:05;16.83;;;10.03;;
69511;SDS011;56709;52.036;4.644;2022-07-19T08:39:30;17.03;;;10.20;;
69511;SDS011;56709;52.036;4.644;2022-07-19T08:41:56;21.27;;;8.93;;
69511;SDS011;56709;52.036;4.644;2022-07-19T08:44:21;13.53;;;8.87;;
69511;SDS011;56709;52.036;4.644;2022-07-19T08:46:47;15.25;;;8.43;;
69511;SDS011;56709;52.036;4.644;2022-07-19T08:49:13;15.45;;;9.05;;
69511;SDS011;56709;52.036;4.644;2022-07-19T08:51:39;16.02;;;8.18;;
69511;SDS011;56709;52.036;4.644;2022-07-19T08:54:06;17.05;;;8.75;;
69511;SDS011;56709;52.036;4.644;2022-07-19T08:56:32;15.70;;;8.43;;
69511;SDS011;56709;52.036;4.644;2022-07-19T08:59:16;16.05;;;8.23;;
69511;SDS011;56709;52.036;4.644;2022-07-19T09:01:41;11.80;;;7.53;;
69511;SDS011;56709;52.036;4.644;2022-07-19T09:04:14;13.23;;;7.40;;
69511;SDS011;56709;52.036;4.644;2022-07-19T09:06:45;13.50;;;6.95;;
69511;SDS011;56709;52.036;4.644;2022-07-19T09:09:15;11.65;;;6.05;;
69511;SDS011;56709;52.036;4.644;2022-07-19T09:11:43;12.43;;;5.45;;
69511;SDS011;56709;52.036;4.644;2022-07-19T09:14:14;12.32;;;4.90;;
69511;SDS011;56709;52.036;4.644;2022-07-19T09:19:23;13.98;;;4.70;;
69511;SDS011;56709;52.036;4.644;2022-07-19T09:24:21;10.65;;;4.82;;
69511;SDS011;56709;52.036;4.644;2022-07-19T09:26:57;13.75;;;4.90;;
69511;SDS011;56709;52.036;4.644;2022-07-19T09:29:28;8.35;;;4.22;;
69511;SDS011;56709;52.036;4.644;2022-07-19T09:32:02;9.98;;;3.78;;
69511;SDS011;56709;52.036;4.644;2022-07-19T09:34:29;8.13;;;3.33;;
69511;SDS011;56709;52.036;4.644;2022-07-19T09:37:18;11.60;;;3.05;;
69511;SDS011;56709;52.036;4.644;2022-07-19T09:39:46;7.25;;;2.88;;
69511;SDS011;56709;52.036;4.644;2022-07-19T09:42:18;8.73;;;3.10;;
69511;SDS011;56709;52.036;4.644;2022-07-19T09:44:46;8.20;;;2.90;;
69511;SDS011;56709;52.036;4.644;2022-07-19T09:47:12;9.55;;;3.25;;
69511;SDS011;56709;52.036;4.644;2022-07-19T09:49:38;8.73;;;2.88;;
69511;SDS011;56709;52.036;4.644;2022-07-19T09:52:03;8.25;;;3.35;;
69511;SDS011;56709;52.036;4.644;2022-07-19T09:54:30;9.82;;;2.88;;
69511;SDS011;56709;52.036;4.644;2022-07-19T09:56:57;5.90;;;2.55;;
69511;SDS011;56709;52.036;4.644;2022-07-19T10:01:49;8.82;;;3.25;;
69511;SDS011;56709;52.036;4.644;2022-07-19T10:04:18;17.85;;;4.00;;
69511;SDS011;56709;52.036;4.644;2022-07-19T10:06:46;9.38;;;3.50;;
69511;SDS011;56709;52.036;4.644;2022-07-19T10:09:13;13.02;;;2.90;;
69511;SDS011;56709;52.036;4.644;2022-07-19T10:11:40;12.27;;;3.25;;
69511;SDS011;56709;52.036;4.644;2022-07-19T10:14:06;6.28;;;2.65;;
69511;SDS011;56709;52.036;4.644;2022-07-19T10:21:53;7.97;;;3.53;;
69511;SDS011;56709;52.036;4.644;2022-07-19T10:27:07;5.60;;;2.25;;
69511;SDS011;56709;52.036;4.644;2022-07-19T10:29:33;6.10;;;2.72;;
69511;SDS011;56709;52.036;4.644;2022-07-19T10:34:28;4.30;;;2.00;;
69511;SDS011;56709;52.036;4.644;2022-07-19T10:50:02;5.53;;;2.55;;
69511;SDS011;56709;52.036;4.644;2022-07-19T10:57:38;8.50;;;2.72;;
69511;SDS011;56709;52.036;4.644;2022-07-19T11:02:53;11.10;;;2.50;;
69511;SDS011;56709;52.036;4.644;2022-07-19T11:05:50;5.47;;;2.60;;
69511;SDS011;56709;52.036;4.644;2022-07-19T11:08:41;7.45;;;2.47;;
69511;SDS011;56709;52.036;4.644;2022-07-19T11:13:42;5.47;;;2.28;;
69511;SDS011;56709;52.036;4.644;2022-07-19T11:16:18;7.97;;;2.55;;
69511;SDS011;56709;52.036;4.644;2022-07-19T11:21:10;5.93;;;2.13;;
69511;SDS011;56709;52.036;4.644;2022-07-19T11:23:37;3.22;;;2.05;;
69511;SDS011;56709;52.036;4.644;2022-07-19T11:26:08;5.43;;;2.45;;
69511;SDS011;56709;52.036;4.644;2022-07-19T11:28:43;7.07;;;2.28;;
69511;SDS011;56709;52.036;4.644;2022-07-19T11:31:16;4.88;;;2.60;;
69511;SDS011;56709;52.036;4.644;2022-07-19T11:33:47;10.25;;;2.53;;
69511;SDS011;56709;52.036;4.644;2022-07-19T11:36:13;5.13;;;2.35;;
69511;SDS011;56709;52.036;4.644;2022-07-19T11:38:51;5.38;;;2.50;;
69511;SDS011;56709;52.036;4.644;2022-07-19T11:41:27;6.60;;;2.70;;
69511;SDS011;56709;52.036;4.644;2022-07-19T11:46:20;4.45;;;2.47;;
69511;SDS011;56709;52.036;4.644;2022-07-19T11:48:47;5.35;;;2.83;;
69511;SDS011;56709;52.036;4.644;2022-07-19T11:51:13;4.75;;;2.47;;
69511;SDS011;56709;52.036;4.644;2022-07-19T11:53:39;6.70;;;2.72;;
69511;SDS011;56709;52.036;4.644;2022-07-19T11:56:05;6.65;;;2.63;;
69511;SDS011;56709;52.036;4.644;2022-07-19T11:58:41;8.13;;;2.38;;
69511;SDS011;56709;52.036;4.644;2022-07-19T12:01:07;4.45;;;2.38;;
69511;SDS011;56709;52.036;4.644;2022-07-19T12:03:33;5.70;;;2.38;;
69511;SDS011;56709;52.036;4.644;2022-07-19T12:06:02;8.00;;;2.83;;
69511;SDS011;56709;52.036;4.644;2022-07-19T12:08:41;8.18;;;2.38;;
69511;SDS011;56709;52.036;4.644;2022-07-19T12:11:15;5.63;;;2.40;;
69511;SDS011;56709;52.036;4.644;2022-07-19T12:13:42;6.95;;;2.22;;
69511;SDS011;56709;52.036;4.644;2022-07-19T12:16:08;5.32;;;2.90;;
69511;SDS011;56709;52.036;4.644;2022-07-19T12:21:22;10.25;;;3.00;;
69511;SDS011;56709;52.036;4.644;2022-07-19T12:26:53;7.65;;;2.70;;
69511;SDS011;56709;52.036;4.644;2022-07-19T12:29:29;6.53;;;2.88;;
69511;SDS011;56709;52.036;4.644;2022-07-19T12:31:56;6.00;;;2.45;;
69511;SDS011;56709;52.036;4.644;2022-07-19T12:34:23;4.93;;;2.67;;
69511;SDS011;56709;52.036;4.644;2022-07-19T12:36:49;7.00;;;2.47;;
69511;SDS011;56709;52.036;4.644;2022-07-19T12:39:32;7.28;;;2.60;;
69511;SDS011;56709;52.036;4.644;2022-07-19T12:42:06;6.95;;;2.80;;
69511;SDS011;56709;52.036;4.644;2022-07-19T12:44:32;8.57;;;2.88;;
69511;SDS011;56709;52.036;4.644;2022-07-19T12:46:59;7.40;;;2.85;;
69511;SDS011;56709;52.036;4.644;2022-07-19T12:49:25;5.40;;;2.45;;
69511;SDS011;56709;52.036;4.644;2022-07-19T12:51:51;8.18;;;2.85;;
69511;SDS011;56709;52.036;4.644;2022-07-19T12:54:17;5.07;;;2.80;;
69511;SDS011;56709;52.036;4.644;2022-07-19T12:56:42;6.07;;;3.22;;
69511;SDS011;56709;52.036;4.644;2022-07-19T12:59:08;7.03;;;2.38;;
69511;SDS011;56709;52.036;4.644;2022-07-19T13:01:52;3.80;;;2.40;;
69511;SDS011;56709;52.036;4.644;2022-07-19T13:04:17;6.60;;;2.58;;
69511;SDS011;56709;52.036;4.644;2022-07-19T13:06:43;5.68;;;2.40;;
69511;SDS011;56709;52.036;4.644;2022-07-19T13:09:08;7.18;;;2.50;;
69511;SDS011;56709;52.036;4.644;2022-07-19T13:11:34;7.32;;;2.50;;
69511;SDS011;56709;52.036;4.644;2022-07-19T13:14:00;4.80;;;2.20;;
69511;SDS011;56709;52.036;4.644;2022-07-19T13:16:26;5.90;;;2.40;;
69511;SDS011;56709;52.036;4.644;2022-07-19T13:18:51;6.10;;;2.65;;
69511;SDS011;56709;52.036;4.644;2022-07-19T13:21:18;6.22;;;2.25;;
69511;SDS011;56709;52.036;4.644;2022-07-19T13:23:44;6.25;;;2.17;;
69511;SDS011;56709;52.036;4.644;2022-07-19T13:26:09;5.70;;;2.17;;
69511;SDS011;56709;52.036;4.644;2022-07-19T13:28:34;4.57;;;2.30;;
69511;SDS011;56709;52.036;4.644;2022-07-19T13:31:02;8.35;;;2.28;;
69511;SDS011;56709;52.036;4.644;2022-07-19T13:33:28;6.78;;;2.30;;
69511;SDS011;56709;52.036;4.644;2022-07-19T13:35:53;13.73;;;3.22;;
69511;SDS011;56709;52.036;4.644;2022-07-19T13:38:18;7.25;;;2.53;;
69511;SDS011;56709;52.036;4.644;2022-07-19T13:40:44;20.67;;;2.80;;
69511;SDS011;56709;52.036;4.644;2022-07-19T13:43:09;6.93;;;2.50;;
69511;SDS011;56709;52.036;4.644;2022-07-19T13:45:34;6.20;;;2.55;;
69511;SDS011;56709;52.036;4.644;2022-07-19T13:48:00;5.53;;;2.78;;
69511;SDS011;56709;52.036;4.644;2022-07-19T13:50:26;5.78;;;2.50;;
69511;SDS011;56709;52.036;4.644;2022-07-19T13:52:51;8.02;;;2.88;;
69511;SDS011;56709;52.036;4.644;2022-07-19T13:55:17;8.38;;;2.53;;
69511;SDS011;56709;52.036;4.644;2022-07-19T13:57:42;5.82;;;2.38;;
69511;SDS011;56709;52.036;4.644;2022-07-19T14:00:08;8.07;;;2.35;;
69511;SDS011;56709;52.036;4.644;2022-07-19T14:02:36;7.20;;;2.30;;
69511;SDS011;56709;52.036;4.644;2022-07-19T14:05:02;3.42;;;1.88;;
69511;SDS011;56709;52.036;4.644;2022-07-19T14:07:29;3.25;;;2.30;;
69511;SDS011;56709;52.036;4.644;2022-07-19T14:09:55;6.50;;;2.80;;
69511;SDS011;56709;52.036;4.644;2022-07-19T14:12:20;6.40;;;2.42;;
69511;SDS011;56709;52.036;4.644;2022-07-19T14:14:45;5.55;;;2.47;;
69511;SDS011;56709;52.036;4.644;2022-07-19T14:17:11;6.28;;;2.47;;
69511;SDS011;56709;52.036;4.644;2022-07-19T14:19:36;6.90;;;2.60;;
69511;SDS011;56709;52.036;4.644;2022-07-19T14:22:02;5.43;;;2.85;;
69511;SDS011;56709;52.036;4.644;2022-07-19T14:24:28;8.07;;;2.42;;
69511;SDS011;56709;52.036;4.644;2022-07-19T14:26:53;8.30;;;2.80;;
69511;SDS011;56709;52.036;4.644;2022-07-19T14:29:19;6.85;;;2.85;;
69511;SDS011;56709;52.036;4.644;2022-07-19T14:31:44;7.65;;;3.38;;
69511;SDS011;56709;52.036;4.644;2022-07-19T14:34:10;8.00;;;2.63;;
69511;SDS011;56709;52.036;4.644;2022-07-19T14:36:35;6.07;;;2.95;;
69511;SDS011;56709;52.036;4.644;2022-07-19T14:39:01;8.50;;;2.92;;
69511;SDS011;56709;52.036;4.644;2022-07-19T14:41:26;7.35;;;2.78;;
69511;SDS011;56709;52.036;4.644;2022-07-19T14:43:51;10.25;;;3.40;;
69511;SDS011;56709;52.036;4.644;2022-07-19T14:46:17;5.15;;;2.38;;
69511;SDS011;56709;52.036;4.644;2022-07-19T14:48:42;5.40;;;2.60;;
69511;SDS011;56709;52.036;4.644;2022-07-19T14:51:08;7.55;;;2.95;;
69511;SDS011;56709;52.036;4.644;2022-07-19T14:53:33;4.97;;;2.90;;
69511;SDS011;56709;52.036;4.644;2022-07-19T14:55:59;8.45;;;2.53;;
69511;SDS011;56709;52.036;4.644;2022-07-19T14:58:24;8.02;;;3.05;;
69511;SDS011;56709;52.036;4.644;2022-07-19T15:00:49;6.90;;;3.17;;
69511;SDS011;56709;52.036;4.644;2022-07-19T15:03:15;6.70;;;3.08;;
69511;SDS011;56709;52.036;4.644;2022-07-19T15:05:41;13.25;;;3.22;;
69511;SDS011;56709;52.036;4.644;2022-07-19T15:08:06;7.85;;;2.80;;
69511;SDS011;56709;52.036;4.644;2022-07-19T15:15:22;6.47;;;3.23;;
69511;SDS011;56709;52.036;4.644;2022-07-19T15:22:38;4.97;;;2.60;;
69511;SDS011;56709;52.036;4.644;2022-07-19T15:27:30;7.95;;;2.92;;
69511;SDS011;56709;52.036;4.644;2022-07-19T15:34:46;8.40;;;2.90;;
69511;SDS011;56709;52.036;4.644;2022-07-19T15:42:02;8.70;;;2.90;;
69511;SDS011;56709;52.036;4.644;2022-07-19T15:46:56;5.85;;;2.42;;
69511;SDS011;56709;52.036;4.644;2022-07-19T15:49:21;7.82;;;2.20;;
69511;SDS011;56709;52.036;4.644;2022-07-19T15:56:37;8.63;;;2.40;;
69511;SDS011;56709;52.036;4.644;2022-07-19T16:03:53;4.63;;;2.40;;
69511;SDS011;56709;52.036;4.644;2022-07-19T16:11:09;10.33;;;2.70;;
69511;SDS011;56709;52.036;4.644;2022-07-19T16:18:25;6.47;;;2.47;;
69511;SDS011;56709;52.036;4.644;2022-07-19T16:25:42;4.27;;;2.53;;